Aviation Digital Data Service (ADDS)

Output produced by METARs form (0426 UTC 30 March 2015)
found at http://aviationweather.gov/adds/metars/
 
KTOL 292338Z 3000/3024 21018G28KT P6SM VCSH OVC050 
     FM300600 26018G28KT 5SM -SHRA OVC025 
     FM301200 27015G25KT P6SM SCT035